Time;durP1;ratioP1;P1;durP2;ratioP2;P2;SDS_P1;SDS_P2;PMS_P1;PMS_P2;Temp;Humidity;BMP_temperature;BMP_pressure;BME280_temperature;BME280_humidity;BME280_pressure;Samples;Min_cycle;Max_cycle;Signal;HPM_P1;HPM_P2
2021/12/10 00:00:59;;;;;;;5.53;2.40;;;;;;;;;;4970561;28;20073;-69
2021/12/10 00:03:30;;;;;;;2.72;2.25;;;;;;;;;;4972893;28;20403;-69
2021/12/10 00:06:11;;;;;;;4.93;2.58;;;;;;;;;;4974179;28;20026;-67
2021/12/10 00:08:39;;;;;;;3.80;2.22;;;;;;;;;;4968078;28;20027;-66
2021/12/10 00:11:14;;;;;;;6.07;2.60;;;;;;;;;;4965725;28;20062;-68
2021/12/10 00:13:44;;;;;;;6.88;2.53;;;;;;;;;;4965881;28;20490;-69
2021/12/10 00:16:09;;;;;;;6.20;2.70;;;;;;;;;;4966891;28;20041;-68
2021/12/10 00:18:37;;;;;;;5.72;2.50;;;;;;;;;;4964214;28;20034;-68
2021/12/10 00:21:04;;;;;;;3.25;2.45;;;;;;;;;;4965826;28;20023;-69
2021/12/10 00:23:31;;;;;;;4.45;2.42;;;;;;;;;;4964883;28;20035;-68
2021/12/10 00:25:59;;;;;;;10.60;3.03;;;;;;;;;;4966015;28;20113;-68
2021/12/10 00:28:31;;;;;;;6.68;2.80;;;;;;;;;;4968140;28;20125;-68
2021/12/10 00:31:21;;;;;;;5.72;2.78;;;;;;;;;;4971200;28;20046;-66
2021/12/10 00:34:03;;;;;;;4.68;2.95;;;;;;;;;;4965864;28;20467;-68
2021/12/10 00:36:28;;;;;;;5.43;2.50;;;;;;;;;;4963126;28;20141;-69
2021/12/10 00:38:55;;;;;;;4.32;2.85;;;;;;;;;;4965900;28;20042;-70
2021/12/10 00:41:23;;;;;;;10.05;2.80;;;;;;;;;;4970987;28;20033;-70
2021/12/10 00:43:49;;;;;;;8.30;2.90;;;;;;;;;;4972936;28;20027;-68
2021/12/10 00:46:15;;;;;;;7.57;3.17;;;;;;;;;;4971431;28;20045;-67
2021/12/10 00:48:40;;;;;;;8.32;2.70;;;;;;;;;;4973257;28;20185;-68
2021/12/10 00:51:09;;;;;;;8.88;3.05;;;;;;;;;;4974574;28;20122;-68
2021/12/10 00:53:35;;;;;;;8.00;2.60;;;;;;;;;;4971234;28;20054;-71
2021/12/10 00:56:03;;;;;;;11.90;2.70;;;;;;;;;;4970830;28;20031;-67
2021/12/10 00:58:31;;;;;;;9.10;2.80;;;;;;;;;;4971198;28;20673;-67
2021/12/10 01:01:05;;;;;;;7.45;2.70;;;;;;;;;;4972141;28;20239;-67
2021/12/10 01:03:39;;;;;;;8.60;2.72;;;;;;;;;;4971488;28;20031;-67
2021/12/10 01:06:07;;;;;;;10.40;2.47;;;;;;;;;;4971730;28;20093;-66
2021/12/10 01:08:34;;;;;;;10.43;2.60;;;;;;;;;;4972547;28;20042;-68
2021/12/10 01:11:06;;;;;;;7.85;2.75;;;;;;;;;;4970282;28;20026;-67
2021/12/10 01:13:35;;;;;;;6.70;2.72;;;;;;;;;;4972155;28;20177;-67
2021/12/10 01:23:46;;;;;;;5.38;2.22;;;;;;;;;;4974081;28;20085;-68
2021/12/10 01:27:26;;;;;;;8.32;2.28;;;;;;;;;;4969629;28;20031;-66
2021/12/10 01:29:56;;;;;;;6.57;2.53;;;;;;;;;;4970276;28;20383;-67
2021/12/10 01:32:26;;;;;;;5.95;2.28;;;;;;;;;;4972135;28;20093;-70
2021/12/10 01:34:51;;;;;;;8.95;2.30;;;;;;;;;;4970665;28;20026;-67
2021/12/10 01:37:17;;;;;;;5.50;1.83;;;;;;;;;;4971826;28;20077;-66
2021/12/10 01:39:43;;;;;;;11.85;2.08;;;;;;;;;;4971583;28;20162;-66
2021/12/10 01:42:34;;;;;;;8.13;2.42;;;;;;;;;;4968873;28;20197;-66
2021/12/10 01:44:59;;;;;;;6.07;2.42;;;;;;;;;;4969189;28;20034;-67
2021/12/10 01:47:30;;;;;;;7.40;2.30;;;;;;;;;;4970303;28;20129;-66
2021/12/10 01:49:57;;;;;;;6.72;2.25;;;;;;;;;;4974993;28;20080;-67
2021/12/10 01:52:22;;;;;;;9.80;3.05;;;;;;;;;;4972173;28;20027;-69
2021/12/10 01:54:54;;;;;;;7.40;2.20;;;;;;;;;;4969054;28;20451;-69
2021/12/10 01:57:23;;;;;;;4.75;1.92;;;;;;;;;;4969126;28;20053;-68
2021/12/10 01:59:49;;;;;;;8.65;2.30;;;;;;;;;;4954523;28;20428;-67
2021/12/10 02:02:29;;;;;;;11.30;2.67;;;;;;;;;;4969649;28;20044;-67
2021/12/10 02:04:55;;;;;;;7.95;2.22;;;;;;;;;;4971395;28;20061;-67
2021/12/10 02:07:24;;;;;;;4.95;2.00;;;;;;;;;;4970793;28;20057;-67
2021/12/10 02:09:50;;;;;;;7.68;2.10;;;;;;;;;;4969971;28;20030;-67
2021/12/10 02:12:18;;;;;;;9.73;2.35;;;;;;;;;;4968545;28;20589;-69
2021/12/10 02:14:45;;;;;;;8.45;1.80;;;;;;;;;;4952650;28;20034;-68
2021/12/10 02:17:11;;;;;;;7.43;2.00;;;;;;;;;;4971918;28;20085;-68
2021/12/10 02:19:38;;;;;;;7.05;2.00;;;;;;;;;;4971096;28;20022;-67
2021/12/10 02:22:04;;;;;;;7.28;1.80;;;;;;;;;;4966463;28;20022;-66
2021/12/10 02:24:31;;;;;;;8.63;1.95;;;;;;;;;;4971678;28;20432;-69
2021/12/10 02:27:00;;;;;;;8.98;1.90;;;;;;;;;;4968601;28;20071;-69
2021/12/10 02:29:28;;;;;;;5.13;1.80;;;;;;;;;;4972575;28;20023;-69
2021/12/10 02:31:55;;;;;;;9.10;1.60;;;;;;;;;;4970133;28;20084;-67
2021/12/10 02:34:22;;;;;;;8.98;1.73;;;;;;;;;;4969272;28;20113;-68
2021/12/10 02:36:48;;;;;;;8.00;2.10;;;;;;;;;;4973001;28;20653;-67
2021/12/10 02:39:18;;;;;;;6.30;1.63;;;;;;;;;;4967826;28;20108;-67
2021/12/10 02:41:45;;;;;;;14.05;1.77;;;;;;;;;;4970156;28;20030;-68
2021/12/10 02:44:13;;;;;;;10.32;1.60;;;;;;;;;;4970591;28;20034;-68
2021/12/10 02:46:39;;;;;;;8.10;1.48;;;;;;;;;;4969091;28;20113;-68
2021/12/10 02:49:07;;;;;;;6.07;1.42;;;;;;;;;;4970096;28;20038;-68
2021/12/10 02:51:35;;;;;;;4.82;1.17;;;;;;;;;;4969378;28;20035;-69
2021/12/10 02:54:02;;;;;;;4.10;1.15;;;;;;;;;;4968333;28;20862;-68
2021/12/10 02:56:28;;;;;;;8.35;1.55;;;;;;;;;;4968933;28;20031;-69
2021/12/10 02:58:59;;;;;;;5.35;1.40;;;;;;;;;;4968519;28;20439;-70
2021/12/10 03:01:32;;;;;;;9.75;1.42;;;;;;;;;;4973847;28;20035;-68
2021/12/10 03:03:59;;;;;;;6.88;1.40;;;;;;;;;;4968294;28;20031;-68
2021/12/10 03:06:26;;;;;;;6.95;1.27;;;;;;;;;;4970648;28;20470;-68
2021/12/10 03:08:53;;;;;;;8.35;1.30;;;;;;;;;;4969856;28;20031;-68
2021/12/10 03:11:24;;;;;;;6.05;1.58;;;;;;;;;;4974721;28;20023;-68
2021/12/10 03:13:49;;;;;;;10.88;1.45;;;;;;;;;;4974794;28;20026;-68
2021/12/10 03:16:16;;;;;;;6.07;1.58;;;;;;;;;;4972101;28;20530;-68
2021/12/10 03:18:41;;;;;;;6.78;1.20;;;;;;;;;;4972812;28;20030;-68
2021/12/10 03:21:09;;;;;;;5.22;1.40;;;;;;;;;;4974724;28;20019;-68
2021/12/10 03:23:42;;;;;;;5.63;1.10;;;;;;;;;;4971831;28;20104;-68
2021/12/10 03:26:10;;;;;;;8.15;1.50;;;;;;;;;;4972723;28;20035;-69
2021/12/10 03:28:36;;;;;;;4.70;1.30;;;;;;;;;;4974861;28;20054;-67
2021/12/10 03:31:02;;;;;;;4.72;1.50;;;;;;;;;;4972334;28;20030;-70
2021/12/10 03:33:28;;;;;;;6.72;1.40;;;;;;;;;;4975794;28;20627;-70
2021/12/10 03:35:53;;;;;;;8.75;1.27;;;;;;;;;;4971994;28;20134;-67
2021/12/10 03:38:22;;;;;;;4.45;1.52;;;;;;;;;;4972504;28;20031;-70
2021/12/10 03:40:48;;;;;;;5.10;1.30;;;;;;;;;;4969741;28;20028;-70
2021/12/10 03:43:15;;;;;;;5.50;1.27;;;;;;;;;;4969775;28;20023;-68
2021/12/10 03:45:46;;;;;;;6.80;1.50;;;;;;;;;;4976476;28;20022;-67
2021/12/10 03:48:16;;;;;;;4.88;1.73;;;;;;;;;;4970972;28;20026;-68
2021/12/10 03:50:43;;;;;;;10.35;1.63;;;;;;;;;;4971186;28;20066;-67
2021/12/10 03:53:10;;;;;;;1.80;1.30;;;;;;;;;;4975573;28;20427;-67
2021/12/10 03:55:35;;;;;;;8.80;1.90;;;;;;;;;;4971559;28;20027;-67
2021/12/10 03:58:01;;;;;;;7.18;1.58;;;;;;;;;;4969556;28;20041;-69
2021/12/10 04:00:31;;;;;;;6.90;1.40;;;;;;;;;;4974204;28;20038;-67
2021/12/10 04:02:58;;;;;;;8.15;2.10;;;;;;;;;;4969588;28;20027;-67
2021/12/10 04:05:24;;;;;;;7.80;1.80;;;;;;;;;;4972644;28;20030;-68
2021/12/10 04:07:50;;;;;;;7.97;2.63;;;;;;;;;;4971635;28;20026;-69
2021/12/10 04:10:17;;;;;;;5.15;2.20;;;;;;;;;;4969984;28;20045;-68
2021/12/10 04:12:43;;;;;;;12.43;2.72;;;;;;;;;;4969350;28;20048;-69
2021/12/10 04:15:09;;;;;;;6.88;2.72;;;;;;;;;;4968471;28;20030;-70
2021/12/10 04:17:37;;;;;;;10.75;2.85;;;;;;;;;;4971700;28;20027;-70
2021/12/10 04:20:04;;;;;;;12.00;3.15;;;;;;;;;;4968717;28;20471;-67
2021/12/10 04:22:32;;;;;;;11.25;3.83;;;;;;;;;;4969210;28;20027;-69
2021/12/10 04:24:59;;;;;;;13.20;3.70;;;;;;;;;;4971873;28;20130;-69
2021/12/10 04:27:25;;;;;;;8.60;3.33;;;;;;;;;;4971240;28;20135;-69
2021/12/10 04:29:52;;;;;;;13.23;3.55;;;;;;;;;;4970495;28;20146;-68
2021/12/10 04:32:18;;;;;;;9.85;4.30;;;;;;;;;;4969047;28;20379;-69
2021/12/10 04:34:43;;;;;;;13.82;3.97;;;;;;;;;;4973186;28;20023;-69
2021/12/10 04:37:10;;;;;;;11.70;3.85;;;;;;;;;;4970890;28;20053;-68
2021/12/10 04:39:44;;;;;;;8.98;3.55;;;;;;;;;;4973536;28;20023;-69
2021/12/10 04:42:09;;;;;;;;;;;;;;;;;;4972855;28;20030;-68
2021/12/10 04:44:35;;;;;;;8.52;2.80;;;;;;;;;;4971704;28;19914;-68
2021/12/10 04:47:00;;;;;;;10.63;3.25;;;;;;;;;;4972292;28;20034;-68
2021/12/10 04:49:26;;;;;;;13.15;3.22;;;;;;;;;;4973014;28;20058;-68
2021/12/10 04:51:53;;;;;;;8.95;2.92;;;;;;;;;;4970513;28;20259;-67
2021/12/10 04:54:21;;;;;;;9.95;2.90;;;;;;;;;;4972680;28;20023;-67
2021/12/10 04:56:48;;;;;;;8.85;2.90;;;;;;;;;;4973538;28;20031;-71
2021/12/10 04:59:16;;;;;;;10.52;2.70;;;;;;;;;;4971841;28;20055;-67
2021/12/10 05:01:42;;;;;;;7.95;2.42;;;;;;;;;;4973581;28;20018;-66
2021/12/10 05:04:09;;;;;;;12.27;3.00;;;;;;;;;;4971071;28;20057;-70
2021/12/10 05:06:36;;;;;;;9.55;2.63;;;;;;;;;;4972902;28;20106;-69
2021/12/10 05:09:04;;;;;;;7.85;2.90;;;;;;;;;;4971651;28;20054;-68
2021/12/10 05:11:30;;;;;;;13.98;2.90;;;;;;;;;;4971950;28;20027;-68
2021/12/10 05:13:56;;;;;;;9.43;2.88;;;;;;;;;;4973932;28;20045;-68
2021/12/10 05:16:25;;;;;;;7.82;2.60;;;;;;;;;;4971498;28;20179;-69
2021/12/10 05:18:57;;;;;;;7.63;2.53;;;;;;;;;;4967533;28;20043;-72
2021/12/10 05:21:23;;;;;;;7.35;2.60;;;;;;;;;;4969869;28;20129;-67
2021/12/10 05:23:49;;;;;;;7.97;2.70;;;;;;;;;;4971723;28;20952;-67
2021/12/10 05:26:15;;;;;;;9.50;2.70;;;;;;;;;;4973337;28;20058;-67
2021/12/10 05:28:40;;;;;;;9.55;2.95;;;;;;;;;;4970949;28;20034;-69
2021/12/10 05:31:06;;;;;;;11.73;3.70;;;;;;;;;;4971468;28;20471;-69
2021/12/10 05:33:31;;;;;;;7.57;3.15;;;;;;;;;;4973029;28;20037;-69
2021/12/10 05:35:59;;;;;;;12.48;3.20;;;;;;;;;;4969938;28;20027;-69
2021/12/10 05:38:25;;;;;;;11.70;3.00;;;;;;;;;;4971832;28;20067;-68
2021/12/10 05:40:53;;;;;;;12.93;2.78;;;;;;;;;;4971973;28;20065;-68
2021/12/10 05:43:19;;;;;;;9.45;2.67;;;;;;;;;;4969574;28;20115;-69
2021/12/10 05:45:46;;;;;;;11.40;3.00;;;;;;;;;;4969369;28;20074;-69
2021/12/10 05:48:12;;;;;;;12.25;2.92;;;;;;;;;;4968495;28;20090;-69
2021/12/10 05:50:37;;;;;;;10.15;3.25;;;;;;;;;;4952320;28;20039;-67
2021/12/10 05:53:04;;;;;;;16.00;3.17;;;;;;;;;;4968449;28;20446;-68
2021/12/10 05:55:30;;;;;;;9.82;3.30;;;;;;;;;;4966968;28;20519;-69
2021/12/10 05:57:55;;;;;;;17.33;4.07;;;;;;;;;;4971269;28;20026;-69
2021/12/10 06:00:27;;;;;;;9.63;3.30;;;;;;;;;;4970492;28;20089;-69
2021/12/10 06:02:52;;;;;;;12.57;3.45;;;;;;;;;;4970567;28;20031;-69
2021/12/10 06:05:19;;;;;;;19.98;3.92;;;;;;;;;;4970578;28;20022;-70
2021/12/10 06:07:44;;;;;;;18.75;3.95;;;;;;;;;;4968501;28;20027;-69
2021/12/10 06:10:12;;;;;;;23.38;3.47;;;;;;;;;;4969259;28;20046;-66
2021/12/10 06:12:37;;;;;;;24.58;3.45;;;;;;;;;;4966443;28;20403;-67
2021/12/10 06:15:05;;;;;;;18.25;2.97;;;;;;;;;;4968481;28;20022;-67
2021/12/10 06:17:30;;;;;;;13.73;2.60;;;;;;;;;;4973087;28;20022;-68
2021/12/10 06:19:56;;;;;;;11.93;3.10;;;;;;;;;;4970679;28;20377;-67
2021/12/10 06:22:21;;;;;;;13.82;3.05;;;;;;;;;;4968199;28;20037;-66
2021/12/10 06:24:47;;;;;;;18.42;3.13;;;;;;;;;;4967834;28;20375;-67
2021/12/10 06:27:12;;;;;;;9.63;2.80;;;;;;;;;;4969854;28;20039;-68
2021/12/10 06:29:42;;;;;;;15.68;3.45;;;;;;;;;;4969539;28;20105;-66
2021/12/10 06:32:10;;;;;;;9.13;3.22;;;;;;;;;;4970591;28;20347;-69
2021/12/10 06:34:36;;;;;;;8.15;2.90;;;;;;;;;;4971194;28;20061;-67
2021/12/10 06:37:02;;;;;;;9.63;2.58;;;;;;;;;;4967587;28;20109;-67
2021/12/10 06:39:27;;;;;;;9.68;2.85;;;;;;;;;;4970670;28;20046;-68
2021/12/10 06:41:53;;;;;;;15.38;2.88;;;;;;;;;;4967710;28;20041;-65
2021/12/10 06:44:20;;;;;;;7.57;2.40;;;;;;;;;;4966362;28;20053;-68
2021/12/10 06:46:46;;;;;;;5.60;1.98;;;;;;;;;;4965029;28;20030;-67
2021/12/10 06:49:14;;;;;;;8.32;2.70;;;;;;;;;;4971376;28;20034;-68
2021/12/10 06:51:39;;;;;;;5.70;2.33;;;;;;;;;;4965879;28;20026;-67
2021/12/10 06:54:05;;;;;;;9.73;2.95;;;;;;;;;;4970417;28;20439;-67
2021/12/10 06:56:33;;;;;;;6.20;2.58;;;;;;;;;;4968154;28;20033;-68
2021/12/10 06:58:59;;;;;;;7.00;2.85;;;;;;;;;;4968246;28;20053;-66
2021/12/10 07:01:30;;;;;;;9.77;2.80;;;;;;;;;;4970762;28;20026;-66
2021/12/10 07:03:57;;;;;;;7.63;2.60;;;;;;;;;;4967905;28;20114;-65
2021/12/10 07:06:26;;;;;;;6.63;2.67;;;;;;;;;;4971106;28;20097;-66
2021/12/10 07:08:52;;;;;;;9.73;2.72;;;;;;;;;;4967969;28;20031;-66
2021/12/10 07:11:20;;;;;;;7.93;2.33;;;;;;;;;;4967139;28;20027;-66
2021/12/10 07:13:50;;;;;;;9.73;2.90;;;;;;;;;;4970305;28;20120;-66
2021/12/10 07:16:18;;;;;;;5.55;2.75;;;;;;;;;;4966326;28;20023;-67
2021/12/10 07:18:44;;;;;;;11.45;3.05;;;;;;;;;;4968207;28;20039;-66
2021/12/10 07:21:10;;;;;;;10.90;3.17;;;;;;;;;;4975402;28;20072;-66
2021/12/10 07:23:37;;;;;;;11.35;3.13;;;;;;;;;;4969167;28;20109;-67
2021/12/10 07:26:04;;;;;;;8.25;3.13;;;;;;;;;;4969816;28;20363;-67
2021/12/10 07:28:29;;;;;;;9.02;2.67;;;;;;;;;;4971518;28;20031;-67
2021/12/10 07:30:55;;;;;;;10.63;2.78;;;;;;;;;;4969484;28;20050;-67
2021/12/10 07:33:21;;;;;;;11.05;2.70;;;;;;;;;;4969247;28;20094;-67
2021/12/10 07:35:47;;;;;;;9.88;2.38;;;;;;;;;;4970698;28;20142;-67
2021/12/10 07:38:13;;;;;;;7.72;2.50;;;;;;;;;;4968104;28;20031;-67
2021/12/10 07:40:38;;;;;;;7.63;2.53;;;;;;;;;;4968229;28;20086;-66
2021/12/10 07:43:06;;;;;;;9.13;3.55;;;;;;;;;;4967352;28;20034;-66
2021/12/10 07:45:32;;;;;;;6.93;2.90;;;;;;;;;;4969051;28;20027;-66
2021/12/10 07:47:59;;;;;;;10.73;2.50;;;;;;;;;;4970589;28;20097;-66
2021/12/10 07:50:33;;;;;;;8.25;2.13;;;;;;;;;;4966821;28;20031;-66
2021/12/10 07:52:59;;;;;;;7.57;2.47;;;;;;;;;;4970611;28;20035;-67
2021/12/10 07:55:31;;;;;;;5.60;2.58;;;;;;;;;;4974634;28;20866;-67
2021/12/10 07:57:58;;;;;;;8.13;2.55;;;;;;;;;;4971350;28;20476;-67
2021/12/10 08:00:27;;;;;;;10.48;3.00;;;;;;;;;;4968626;28;20030;-67
2021/12/10 08:02:52;;;;;;;7.15;2.60;;;;;;;;;;4971914;28;20105;-67
2021/12/10 08:05:21;;;;;;;9.70;2.67;;;;;;;;;;4970898;28;20541;-67
2021/12/10 08:07:47;;;;;;;13.10;3.60;;;;;;;;;;4974076;28;20022;-68
2021/12/10 08:10:13;;;;;;;8.65;2.88;;;;;;;;;;4971815;28;20235;-67
2021/12/10 08:12:39;;;;;;;14.43;3.20;;;;;;;;;;4972297;28;20084;-67
2021/12/10 08:15:06;;;;;;;8.45;2.80;;;;;;;;;;4969318;28;20483;-66
2021/12/10 08:17:32;;;;;;;7.38;3.03;;;;;;;;;;4972052;28;20046;-68
2021/12/10 08:19:58;;;;;;;9.23;2.33;;;;;;;;;;4972385;28;20058;-73
2021/12/10 08:22:24;;;;;;;9.43;2.67;;;;;;;;;;4971063;28;20108;-67
2021/12/10 08:24:49;;;;;;;9.30;2.90;;;;;;;;;;4972554;28;20336;-67
2021/12/10 08:27:16;;;;;;;9.10;2.60;;;;;;;;;;4971748;28;20038;-69
2021/12/10 08:29:44;;;;;;;8.43;3.15;;;;;;;;;;4969352;28;20030;-66
2021/12/10 08:32:13;;;;;;;9.82;2.95;;;;;;;;;;4973211;28;20022;-66
2021/12/10 08:34:38;;;;;;;15.60;3.45;;;;;;;;;;4970643;28;20030;-67
2021/12/10 08:37:05;;;;;;;9.05;2.85;;;;;;;;;;4972775;28;20019;-67
2021/12/10 08:39:30;;;;;;;10.35;3.58;;;;;;;;;;4968425;28;20070;-67
2021/12/10 08:41:57;;;;;;;7.18;3.20;;;;;;;;;;4970522;28;20019;-67
2021/12/10 08:44:23;;;;;;;8.25;3.00;;;;;;;;;;4972076;28;20561;-67
2021/12/10 08:46:48;;;;;;;9.15;2.90;;;;;;;;;;4969900;28;20023;-67
2021/12/10 08:49:15;;;;;;;11.05;3.17;;;;;;;;;;4972196;28;20035;-66
2021/12/10 08:51:44;;;;;;;11.55;3.10;;;;;;;;;;4973012;28;20030;-67
2021/12/10 08:54:10;;;;;;;4.45;2.50;;;;;;;;;;4969585;28;20102;-66
2021/12/10 08:56:37;;;;;;;10.13;2.40;;;;;;;;;;4970983;28;20033;-67
2021/12/10 08:59:06;;;;;;;5.93;2.45;;;;;;;;;;4970414;28;20027;-71
2021/12/10 09:01:35;;;;;;;6.65;2.63;;;;;;;;;;4969947;28;20494;-65
2021/12/10 09:04:04;;;;;;;9.45;2.35;;;;;;;;;;4970923;28;20031;-67
2021/12/10 09:06:32;;;;;;;9.48;2.83;;;;;;;;;;4962620;28;20161;-66
2021/12/10 09:08:58;;;;;;;6.50;2.30;;;;;;;;;;4964868;28;20030;-67
2021/12/10 09:11:24;;;;;;;4.65;2.53;;;;;;;;;;4968926;28;20452;-66
2021/12/10 09:13:49;;;;;;;9.13;2.50;;;;;;;;;;4967813;28;20045;-69
2021/12/10 09:16:24;;;;;;;8.27;2.58;;;;;;;;;;4969798;28;20122;-67
2021/12/10 09:18:53;;;;;;;5.97;2.45;;;;;;;;;;4973248;28;20110;-67
2021/12/10 09:21:19;;;;;;;8.95;2.25;;;;;;;;;;4971359;28;20073;-66
2021/12/10 09:23:44;;;;;;;8.80;2.22;;;;;;;;;;4973438;28;20479;-69
2021/12/10 09:26:14;;;;;;;5.57;2.22;;;;;;;;;;4970839;28;20107;-68
2021/12/10 09:28:42;;;;;;;10.52;2.58;;;;;;;;;;4968524;28;20437;-66
2021/12/10 09:31:09;;;;;;;6.60;2.63;;;;;;;;;;4969502;28;20022;-66
2021/12/10 09:33:35;;;;;;;9.18;2.65;;;;;;;;;;4970236;28;20034;-67
2021/12/10 09:36:01;;;;;;;7.80;2.70;;;;;;;;;;4970556;28;20159;-68
2021/12/10 09:38:27;;;;;;;7.75;2.20;;;;;;;;;;4970794;28;20142;-67
2021/12/10 09:40:57;;;;;;;6.35;2.28;;;;;;;;;;4968621;28;20042;-66
2021/12/10 09:43:24;;;;;;;8.48;2.78;;;;;;;;;;4971369;28;20451;-67
2021/12/10 09:45:52;;;;;;;8.90;2.38;;;;;;;;;;4968097;28;20034;-68
2021/12/10 09:48:19;;;;;;;6.75;2.03;;;;;;;;;;4969797;28;20026;-68
2021/12/10 09:50:58;;;;;;;7.28;2.20;;;;;;;;;;4988298;28;20443;-74
2021/12/10 09:53:26;;;;;;;3.55;1.98;;;;;;;;;;4966817;28;20479;-68
2021/12/10 09:55:52;;;;;;;6.05;2.30;;;;;;;;;;4970342;28;20506;-68
2021/12/10 09:58:19;;;;;;;5.43;2.10;;;;;;;;;;4969618;28;20026;-66
2021/12/10 10:00:52;;;;;;;8.50;2.28;;;;;;;;;;4970039;28;20027;-66
2021/12/10 10:03:22;;;;;;;11.75;2.20;;;;;;;;;;4966624;28;20027;-66
2021/12/10 10:05:48;;;;;;;7.25;2.17;;;;;;;;;;4968175;28;21393;-69
2021/12/10 10:08:21;;;;;;;6.88;2.15;;;;;;;;;;4967671;28;20026;-66
2021/12/10 10:10:50;;;;;;;3.88;1.80;;;;;;;;;;4968679;28;20050;-69
2021/12/10 10:13:17;;;;;;;7.88;2.50;;;;;;;;;;4966939;28;20035;-66
2021/12/10 10:15:46;;;;;;;10.65;2.47;;;;;;;;;;4970392;28;20034;-68
2021/12/10 10:18:13;;;;;;;6.45;2.28;;;;;;;;;;4969524;28;20042;-66
2021/12/10 10:20:43;;;;;;;12.15;2.65;;;;;;;;;;4972577;28;20034;-68
2021/12/10 10:23:10;;;;;;;5.25;2.30;;;;;;;;;;4972822;28;20085;-66
2021/12/10 10:25:40;;;;;;;5.35;2.38;;;;;;;;;;4969955;28;20026;-65
2021/12/10 10:28:10;;;;;;;15.68;2.50;;;;;;;;;;4969737;28;20034;-66
2021/12/10 10:30:39;;;;;;;4.35;1.90;;;;;;;;;;4967293;28;20038;-67
2021/12/10 10:33:08;;;;;;;8.38;2.67;;;;;;;;;;4968779;28;20058;-67
2021/12/10 10:35:41;;;;;;;9.85;2.30;;;;;;;;;;4968734;28;20526;-67
2021/12/10 10:38:07;;;;;;;;;;;;;;;;;;4968513;28;20324;-67
2021/12/10 10:40:38;;;;;;;5.97;1.90;;;;;;;;;;4968427;28;20363;-67
2021/12/10 10:43:05;;;;;;;12.93;2.28;;;;;;;;;;4967941;28;20097;-66
2021/12/10 10:45:39;;;;;;;7.40;2.30;;;;;;;;;;4969867;28;20024;-67
2021/12/10 10:48:06;;;;;;;5.53;2.00;;;;;;;;;;4970378;28;20037;-67
2021/12/10 10:50:42;;;;;;;4.25;2.00;;;;;;;;;;4970831;28;20340;-66
2021/12/10 10:53:11;;;;;;;10.60;2.55;;;;;;;;;;4968704;28;20030;-67
2021/12/10 10:55:42;;;;;;;15.15;2.60;;;;;;;;;;4970834;28;20033;-67
2021/12/10 10:58:11;;;;;;;6.00;2.28;;;;;;;;;;4968418;28;20109;-66
2021/12/10 11:01:28;;;;;;;9.45;2.30;;;;;;;;;;4967941;28;20045;-68
2021/12/10 11:04:05;;;;;;;9.30;2.67;;;;;;;;;;4959014;28;20042;-67
2021/12/10 11:06:36;;;;;;;7.57;3.17;;;;;;;;;;4968133;28;20042;-69
2021/12/10 11:09:04;;;;;;;7.45;2.20;;;;;;;;;;4966558;28;20038;-66
2021/12/10 11:11:35;;;;;;;5.18;1.92;;;;;;;;;;4965837;28;20062;-67
2021/12/10 11:14:09;;;;;;;6.57;2.20;;;;;;;;;;4969088;28;20327;-67
2021/12/10 11:16:37;;;;;;;9.77;2.17;;;;;;;;;;4968409;28;20034;-67
2021/12/10 11:19:12;;;;;;;6.07;2.25;;;;;;;;;;4968654;28;20113;-68
2021/12/10 11:21:52;;;;;;;6.00;2.10;;;;;;;;;;4972480;28;20043;-65
2021/12/10 11:24:44;;;;;;;9.00;2.22;;;;;;;;;;4965786;28;20034;-67
2021/12/10 11:27:13;;;;;;;4.22;1.98;;;;;;;;;;4967437;28;20030;-66
2021/12/10 11:29:53;;;;;;;8.45;2.60;;;;;;;;;;4966005;28;20026;-67
2021/12/10 11:32:45;;;;;;;5.65;2.20;;;;;;;;;;4970313;28;20027;-67
2021/12/10 11:35:24;;;;;;;5.40;2.05;;;;;;;;;;4969548;28;20162;-66
2021/12/10 11:38:04;;;;;;;5.15;1.88;;;;;;;;;;4972688;28;20049;-67
2021/12/10 11:40:41;;;;;;;9.85;2.00;;;;;;;;;;4972816;28;20082;-67
2021/12/10 11:48:46;;;;;;;5.68;2.00;;;;;;;;;;4973862;28;20411;-66
2021/12/10 11:51:19;;;;;;;4.07;1.73;;;;;;;;;;4985739;28;20031;-68
2021/12/10 11:54:08;;;;;;;4.90;2.05;;;;;;;;;;4975112;28;20026;-66
2021/12/10 11:56:44;;;;;;;6.05;1.90;;;;;;;;;;4970094;28;20390;-67
2021/12/10 11:59:18;;;;;;;2.80;1.70;;;;;;;;;;4965644;28;20420;-67
2021/12/10 12:02:06;;;;;;;7.15;2.30;;;;;;;;;;4966443;28;20034;-67
2021/12/10 12:04:53;;;;;;;4.90;2.03;;;;;;;;;;4964060;28;20038;-66
2021/12/10 12:07:41;;;;;;;5.97;1.83;;;;;;;;;;4972839;28;20030;-67
2021/12/10 12:10:18;;;;;;;4.93;2.08;;;;;;;;;;4971964;28;20027;-67
2021/12/10 12:12:51;;;;;;;11.80;2.05;;;;;;;;;;4970298;28;20023;-66
2021/12/10 12:15:35;;;;;;;4.35;2.10;;;;;;;;;;4970504;28;20054;-69
2021/12/10 12:18:06;;;;;;;7.10;1.90;;;;;;;;;;4975309;28;20484;-66
2021/12/10 12:20:43;;;;;;;5.95;2.55;;;;;;;;;;4972983;28;20027;-69
2021/12/10 12:26:15;;;;;;;5.65;2.00;;;;;;;;;;4973126;28;20478;-67
2021/12/10 12:28:56;;;;;;;5.40;2.00;;;;;;;;;;4968595;28;20054;-67
2021/12/10 12:31:27;;;;;;;5.95;2.10;;;;;;;;;;4971083;28;20682;-67
2021/12/10 12:33:57;;;;;;;5.88;2.00;;;;;;;;;;4974661;28;20121;-67
2021/12/10 12:36:25;;;;;;;6.85;2.33;;;;;;;;;;4971027;28;20039;-67
2021/12/10 12:38:51;;;;;;;7.43;2.10;;;;;;;;;;4968291;28;20337;-67
2021/12/10 12:41:23;;;;;;;5.90;2.20;;;;;;;;;;4969852;28;20033;-68
2021/12/10 12:44:09;;;;;;;5.05;2.15;;;;;;;;;;4971449;28;20034;-67
2021/12/10 12:46:54;;;;;;;6.55;1.85;;;;;;;;;;4969934;28;20049;-68
2021/12/10 12:49:19;;;;;;;6.30;2.33;;;;;;;;;;4970185;28;20050;-68
2021/12/10 12:52:12;;;;;;;5.20;1.70;;;;;;;;;;4972731;28;20049;-67
2021/12/10 12:54:42;;;;;;;3.80;2.15;;;;;;;;;;4971145;28;20593;-67
2021/12/10 12:57:11;;;;;;;6.20;1.90;;;;;;;;;;4967477;28;20061;-68
2021/12/10 12:59:36;;;;;;;4.25;1.55;;;;;;;;;;4967124;28;20051;-68
2021/12/10 13:02:07;;;;;;;3.22;1.52;;;;;;;;;;4972548;28;20035;-69
2021/12/10 13:04:39;;;;;;;5.82;1.55;;;;;;;;;;4968702;28;20114;-68
2021/12/10 13:07:12;;;;;;;4.63;1.77;;;;;;;;;;4971444;28;20027;-67
2021/12/10 13:09:51;;;;;;;2.97;1.73;;;;;;;;;;4970797;28;20108;-66
2021/12/10 13:12:46;;;;;;;2.45;1.58;;;;;;;;;;4971501;28;20031;-66
2021/12/10 13:15:26;;;;;;;3.85;1.88;;;;;;;;;;4971597;28;20046;-68
2021/12/10 13:17:59;;;;;;;4.05;1.88;;;;;;;;;;4967442;28;20130;-69
2021/12/10 13:20:28;;;;;;;3.83;1.67;;;;;;;;;;4968458;28;21041;-66
2021/12/10 13:22:57;;;;;;;4.20;2.10;;;;;;;;;;4972437;28;20018;-69
2021/12/10 13:25:26;;;;;;;5.88;1.50;;;;;;;;;;4971088;28;20026;-66
2021/12/10 13:27:52;;;;;;;2.90;1.10;;;;;;;;;;4964952;28;21823;-67
2021/12/10 13:30:35;;;;;;;2.72;1.48;;;;;;;;;;4966931;28;20026;-66
2021/12/10 13:33:00;;;;;;;2.10;1.30;;;;;;;;;;4970144;28;20071;-68
2021/12/10 13:35:28;;;;;;;3.92;1.40;;;;;;;;;;4971433;28;20608;-67
2021/12/10 13:37:57;;;;;;;5.28;1.63;;;;;;;;;;4968441;28;20049;-68
2021/12/10 13:40:23;;;;;;;1.70;1.20;;;;;;;;;;4978383;28;20090;-68
2021/12/10 13:42:51;;;;;;;3.35;1.30;;;;;;;;;;4968968;28;20023;-67
2021/12/10 13:45:19;;;;;;;4.18;1.30;;;;;;;;;;4969380;28;20047;-66
2021/12/10 13:48:00;;;;;;;2.05;1.48;;;;;;;;;;4973021;28;20045;-67
2021/12/10 13:50:27;;;;;;;3.70;1.55;;;;;;;;;;4966471;28;20038;-68
2021/12/10 13:53:05;;;;;;;3.30;1.23;;;;;;;;;;4970777;28;20027;-67
2021/12/10 13:55:42;;;;;;;1.50;1.38;;;;;;;;;;4966791;28;20034;-66
2021/12/10 13:58:33;;;;;;;4.15;1.55;;;;;;;;;;4967910;28;20084;-67
2021/12/10 14:01:04;;;;;;;4.47;1.80;;;;;;;;;;4967706;28;20054;-68
2021/12/10 14:03:44;;;;;;;2.60;1.75;;;;;;;;;;4968182;28;20042;-66
2021/12/10 14:06:13;;;;;;;3.92;1.80;;;;;;;;;;4970849;28;20102;-66
2021/12/10 14:08:39;;;;;;;4.90;1.90;;;;;;;;;;4968548;28;20113;-66
2021/12/10 14:11:29;;;;;;;3.53;1.58;;;;;;;;;;4969315;28;20313;-66
2021/12/10 14:14:08;;;;;;;4.78;1.73;;;;;;;;;;4971172;28;20041;-66
2021/12/10 14:16:57;;;;;;;3.97;1.63;;;;;;;;;;4970148;28;20026;-69
2021/12/10 14:19:31;;;;;;;6.20;1.70;;;;;;;;;;4971025;28;20496;-66
2021/12/10 14:21:57;;;;;;;3.97;1.60;;;;;;;;;;4961701;28;20084;-66
2021/12/10 14:24:46;;;;;;;3.80;1.80;;;;;;;;;;4969277;28;20027;-67
2021/12/10 14:27:21;;;;;;;8.95;2.28;;;;;;;;;;4968660;28;20033;-67
2021/12/10 14:30:24;;;;;;;6.93;2.00;;;;;;;;;;4968137;28;20027;-67
2021/12/10 14:33:37;;;;;;;4.15;1.80;;;;;;;;;;4966324;28;20106;-67
2021/12/10 14:36:10;;;;;;;6.25;1.90;;;;;;;;;;4949957;28;20038;-66
2021/12/10 14:39:09;;;;;;;4.68;1.85;;;;;;;;;;4966950;28;20828;-67
2021/12/10 14:41:38;;;;;;;3.28;1.80;;;;;;;;;;4966461;28;20074;-67
2021/12/10 14:44:25;;;;;;;3.38;1.83;;;;;;;;;;4967493;28;20027;-67
2021/12/10 14:47:17;;;;;;;3.05;1.60;;;;;;;;;;4969039;28;20058;-68
2021/12/10 14:49:48;;;;;;;5.50;2.10;;;;;;;;;;4965909;28;20538;-68
2021/12/10 14:52:19;;;;;;;8.13;2.60;;;;;;;;;;4964490;28;20022;-67
2021/12/10 14:55:16;;;;;;;10.30;2.83;;;;;;;;;;4967196;28;20030;-68
2021/12/10 14:58:01;;;;;;;3.75;2.13;;;;;;;;;;4947601;28;20034;-65
2021/12/10 15:00:36;;;;;;;5.85;2.08;;;;;;;;;;4966353;28;20051;-65
2021/12/10 15:03:04;;;;;;;3.75;2.22;;;;;;;;;;4964947;28;20027;-66
2021/12/10 15:05:59;;;;;;;4.07;2.08;;;;;;;;;;4969803;28;20108;-66
2021/12/10 15:08:59;;;;;;;3.50;1.55;;;;;;;;;;4968201;28;20030;-66
2021/12/10 15:11:30;;;;;;;7.97;2.25;;;;;;;;;;4963542;28;20046;-66
2021/12/10 15:14:29;;;;;;;4.47;2.03;;;;;;;;;;4969372;28;20038;-67
2021/12/10 15:17:09;;;;;;;5.68;1.95;;;;;;;;;;4965133;28;20042;-66